This is the latest recevied weather packets stored in our database for station/object NG7M. If no packets are shown the sender has not sent any weather packets the latest 10 day(s).
| Time | Temp. | Humidity | Pressure | Rain* | Wind** | Luminosity | Snow |
|---|---|---|---|---|---|---|---|
| 1777652704 | 14.44° C | 28% | 1020.5 hPa | 0 mm | - | - | - |
| 1777651204 | 13.89° C | 27% | 1020.4 hPa | 0 mm | - | - | - |
| 1777647604 | 12.78° C | 32% | 1020.2 hPa | 0 mm | - | - | - |
| 1777647304 | 12.78° C | 32% | 1020.1 hPa | 0 mm | - | - | - |
| 1777646704 | 12.78° C | 33% | 1020 hPa | 0 mm | - | - | - |
| 1777641603 | 10° C | 33% | 1018.9 hPa | 0 mm | - | - | - |
| 1777640703 | 10° C | 34% | 1018.9 hPa | 0 mm | - | - | - |
| 1777640103 | 9.44° C | 34% | 1018.8 hPa | 0 mm | - | - | - |
| 1777638904 | 9.44° C | 33% | 1018.6 hPa | 0 mm | - | - | - |
| 1777638004 | 8.89° C | 34% | 1018.3 hPa | 0 mm | - | - | - |
| 1777634703 | 7.78° C | 42% | 1018.4 hPa | 0 mm | - | - | - |
| 1777629903 | 10.56° C | 33% | 1017.9 hPa | 0 mm | - | - | - |
| 1777628404 | 10.56° C | 34% | 1017.8 hPa | 0 mm | - | - | - |
| 1777626304 | 9.44° C | 38% | 1017.8 hPa | 0 mm | - | - | - |
| 1777624804 | 10° C | 36% | 1017.7 hPa | 0 mm | - | - | - |
| 1777620904 | 10° C | 36% | 1017.7 hPa | 0 mm | - | - | - |
| 1777619703 | 10.56° C | 34% | 1017.7 hPa | 0 mm | - | - | - |
| 1777618204 | 11.11° C | 31% | 1017.6 hPa | 0 mm | - | - | - |
| 1777615805 | 12.22° C | 29% | 1017.5 hPa | 0 mm | - | - | - |
| 1777612804 | 13.33° C | 29% | 1017.3 hPa | 0 mm | - | - | - |
| 1777610404 | 13.89° C | 28% | 1017.2 hPa | 0 mm | - | - | - |
| 1777606204 | 14.44° C | 26% | 1016.6 hPa | 0 mm | - | - | - |
| 1777604704 | 14.44° C | 27% | 1016.5 hPa | 0 mm | - | - | - |
| 1777601703 | 15.56° C | 26% | 1016.1 hPa | 0 mm | - | - | - |
| 1777596603 | 17.22° C | 19% | 1015.8 hPa | 0 mm | - | - | - |
* Rain latest hour (hover to see other rain measurements)
** Current wind speed in m/s (hover to see current wind gust speed)